createdAt,value
2022-09-12T00:01:42.653Z,6.20
2022-09-12T00:03:46.966Z,5.40
2022-09-12T00:05:53.525Z,4.90
2022-09-12T00:08:00.011Z,4.20
2022-09-12T00:10:05.106Z,4.15
2022-09-12T00:12:11.618Z,4.30
2022-09-12T00:14:18.488Z,4.65
2022-09-12T00:16:26.996Z,4.30
2022-09-12T00:18:34.149Z,4.00
2022-09-12T00:20:40.786Z,5.57
2022-09-12T00:22:45.215Z,4.95
2022-09-12T00:24:50.828Z,4.45
2022-09-12T00:26:57.405Z,3.72
2022-09-12T00:29:01.780Z,4.38
2022-09-12T00:31:14.552Z,4.22
2022-09-12T00:35:25.199Z,4.28
2022-09-12T00:37:34.433Z,3.72
2022-09-12T00:39:40.915Z,3.55
2022-09-12T00:41:45.880Z,3.42
2022-09-12T00:43:59.478Z,3.13
2022-09-12T00:46:19.825Z,3.42
2022-09-12T00:48:27.390Z,4.00
2022-09-12T00:50:34.337Z,3.30
2022-09-12T00:52:56.790Z,2.90
2022-09-12T00:55:32.700Z,3.25
2022-09-12T00:58:01.523Z,2.92
2022-09-12T01:00:16.759Z,3.00
2022-09-12T01:02:21.282Z,3.20
2022-09-12T01:04:28.538Z,2.70
2022-09-12T01:06:37.597Z,3.20
2022-09-12T01:08:42.320Z,2.72
2022-09-12T01:10:48.918Z,2.28
2022-09-12T01:12:53.689Z,2.88
2022-09-12T01:14:57.971Z,2.30
2022-09-12T01:17:04.524Z,2.67
2022-09-12T01:19:48.081Z,2.83
2022-09-12T01:22:18.856Z,2.10
2022-09-12T01:24:51.003Z,2.20
2022-09-12T01:27:31.130Z,2.15
2022-09-12T01:29:56.679Z,2.20
2022-09-12T01:32:25.600Z,2.45
2022-09-12T01:35:01.853Z,2.15
2022-09-12T01:37:23.642Z,2.45
2022-09-12T01:39:41.713Z,2.00
2022-09-12T01:42:04.307Z,2.40
2022-09-12T01:44:35.456Z,2.15
2022-09-12T01:47:21.644Z,2.08
2022-09-12T01:49:35.290Z,2.20
2022-09-12T01:52:04.115Z,2.22
2022-09-12T01:54:26.037Z,2.58
2022-09-12T01:56:30.911Z,2.50
2022-09-12T01:59:06.611Z,2.10
2022-09-12T02:01:32.742Z,2.25
2022-09-12T02:04:01.529Z,1.92
2022-09-12T02:06:12.613Z,2.20
2022-09-12T02:08:23.187Z,2.03
2022-09-12T02:10:32.686Z,2.63
2022-09-12T02:12:49.054Z,2.38
2022-09-12T02:14:58.179Z,2.15
2022-09-12T02:17:14.520Z,1.92
2022-09-12T02:19:25.350Z,2.03
2022-09-12T02:21:36.088Z,2.00
2022-09-12T02:23:43.012Z,2.40
2022-09-12T02:25:48.162Z,1.98
2022-09-12T02:27:58.669Z,1.95
2022-09-12T02:30:03.231Z,2.10
2022-09-12T02:32:21.472Z,2.13
2022-09-12T02:34:59.195Z,2.55
2022-09-12T02:37:27.013Z,2.42
2022-09-12T02:39:35.235Z,2.72
2022-09-12T02:41:39.627Z,2.50
2022-09-12T02:43:44.135Z,3.38
2022-09-12T02:45:50.444Z,5.95
2022-09-12T02:48:08.824Z,7.70
2022-09-12T02:50:13.409Z,3.60
2022-09-12T02:52:20.143Z,3.10
2022-09-12T02:54:25.861Z,2.88
2022-09-12T02:56:31.825Z,3.08
2022-09-12T02:58:38.067Z,2.53
2022-09-12T03:01:09.095Z,2.60
2022-09-12T03:03:29.115Z,3.05
2022-09-12T03:05:39.574Z,2.95
2022-09-12T03:08:11.448Z,2.85
2022-09-12T03:10:35.836Z,10.85
2022-09-12T03:13:05.803Z,8.57
2022-09-12T03:15:32.714Z,3.70
2022-09-12T03:17:50.265Z,2.83
2022-09-12T03:20:22.953Z,3.90
2022-09-12T03:22:37.076Z,2.75
2022-09-12T03:25:05.647Z,2.45
2022-09-12T03:27:17.729Z,2.10
2022-09-12T03:29:24.116Z,2.60
2022-09-12T03:31:28.845Z,2.60
2022-09-12T03:33:36.037Z,2.20
2022-09-12T03:35:42.470Z,2.33
2022-09-12T03:37:46.933Z,2.50
2022-09-12T03:39:55.102Z,2.40
2022-09-12T03:42:01.941Z,2.65
2022-09-12T03:44:06.294Z,2.58
2022-09-12T03:46:12.749Z,2.28
2022-09-12T03:48:17.590Z,2.13
2022-09-12T03:50:21.874Z,2.20
2022-09-12T03:52:26.599Z,1.80
2022-09-12T03:54:32.903Z,2.00
2022-09-12T03:56:38.125Z,1.83
2022-09-12T03:58:42.733Z,2.03
2022-09-12T04:00:49.631Z,1.90
2022-09-12T04:02:58.101Z,2.45
2022-09-12T04:05:04.641Z,1.88
2022-09-12T04:07:11.097Z,1.63
2022-09-12T04:09:15.752Z,1.90
2022-09-12T04:11:20.834Z,2.00
2022-09-12T04:13:27.335Z,1.90
2022-09-12T04:15:31.825Z,1.73
2022-09-12T04:17:38.484Z,1.50
2022-09-12T04:19:44.946Z,1.60
2022-09-12T04:21:49.244Z,1.70
2022-09-12T04:23:55.367Z,1.52
2022-09-12T04:26:04.048Z,2.00
2022-09-12T04:28:08.370Z,1.65
2022-09-12T04:30:14.989Z,2.25
2022-09-12T04:32:20.013Z,1.90
2022-09-12T04:34:24.605Z,2.00
2022-09-12T04:36:29.438Z,2.03
2022-09-12T04:38:36.553Z,2.00
2022-09-12T04:40:42.782Z,1.52
2022-09-12T04:42:48.979Z,1.63
2022-09-12T04:44:55.454Z,1.70
2022-09-12T04:46:59.791Z,1.52
2022-09-12T04:49:05.956Z,1.95
2022-09-12T04:55:54.108Z,1.65
2022-09-12T04:57:58.641Z,1.60
2022-09-12T05:00:07.325Z,1.35
2022-09-12T05:02:13.855Z,1.70
2022-09-12T05:04:20.068Z,1.60
2022-09-12T05:06:26.325Z,1.70
2022-09-12T05:08:33.056Z,1.75
2022-09-12T05:10:38.831Z,1.70
2022-09-12T05:12:43.380Z,1.70
2022-09-12T05:14:49.589Z,1.73
2022-09-12T05:16:56.375Z,1.70
2022-09-12T05:19:01.515Z,1.60
2022-09-12T05:21:09.118Z,1.77
2022-09-12T05:23:14.893Z,2.30
2022-09-12T05:25:19.488Z,1.58
2022-09-12T05:27:27.654Z,1.90
2022-09-12T05:29:32.815Z,1.70
2022-09-12T05:31:37.683Z,1.58
2022-09-12T05:33:44.764Z,1.88
2022-09-12T05:35:56.027Z,1.52
2022-09-12T05:38:00.724Z,1.38
2022-09-12T05:40:09.586Z,1.55
2022-09-12T05:42:18.331Z,1.70
2022-09-12T05:44:22.629Z,1.73
2022-09-12T05:46:31.246Z,1.55
2022-09-12T05:48:38.545Z,1.98
2022-09-12T05:50:43.514Z,1.95
2022-09-12T05:52:49.736Z,1.92
2022-09-12T05:54:56.448Z,1.60
2022-09-12T05:57:01.090Z,1.77
2022-09-12T05:59:18.097Z,1.65
2022-09-12T06:01:24.669Z,1.80
2022-09-12T06:03:29.281Z,1.73
2022-09-12T06:05:35.738Z,1.65
2022-09-12T06:07:42.422Z,1.90
2022-09-12T06:09:46.672Z,1.95
2022-09-12T06:11:53.176Z,1.80
2022-09-12T06:13:59.831Z,1.75
2022-09-12T06:16:06.471Z,1.73
2022-09-12T06:18:12.900Z,1.85
2022-09-12T06:20:18.917Z,1.90
2022-09-12T06:22:23.262Z,1.98
2022-09-12T06:24:27.551Z,1.70
2022-09-12T06:26:34.313Z,1.80
2022-09-12T06:28:39.983Z,1.98
2022-09-12T06:30:46.391Z,2.00
2022-09-12T06:32:53.282Z,1.98
2022-09-12T06:34:57.555Z,1.90
2022-09-12T06:37:05.072Z,2.28
2022-09-12T06:39:14.257Z,2.13
2022-09-12T06:41:18.725Z,2.40
2022-09-12T06:43:27.016Z,2.88
2022-09-12T06:45:33.431Z,3.00
2022-09-12T06:47:38.350Z,3.38
2022-09-12T06:49:42.728Z,3.55
2022-09-12T06:51:47.201Z,4.32
2022-09-12T06:53:51.932Z,3.67
2022-09-12T06:56:02.262Z,2.90
2022-09-12T06:58:07.858Z,3.08
2022-09-12T07:00:13.362Z,3.05
2022-09-12T07:02:17.723Z,3.38
2022-09-12T07:04:23.230Z,2.40
2022-09-12T07:06:32.729Z,2.20
2022-09-12T07:08:39.173Z,2.08
2022-09-12T07:10:44.852Z,2.35
2022-09-12T07:12:49.075Z,2.65
2022-09-12T07:14:55.346Z,2.55
2022-09-12T07:17:01.059Z,2.35
2022-09-12T07:19:06.849Z,2.45
2022-09-12T07:21:15.653Z,2.35
2022-09-12T07:23:22.224Z,2.30
2022-09-12T07:25:26.452Z,2.17
2022-09-12T07:27:32.584Z,2.30
2022-09-12T07:29:37.922Z,2.20
2022-09-12T07:31:42.669Z,2.20
2022-09-12T07:33:54.207Z,2.00
2022-09-12T07:36:04.926Z,1.92
2022-09-12T07:38:10.190Z,2.20
2022-09-12T07:40:16.837Z,1.83
2022-09-12T07:42:21.465Z,2.13
2022-09-12T07:44:28.074Z,2.55
2022-09-12T07:46:36.129Z,2.88
2022-09-12T07:48:41.967Z,2.20
2022-09-12T07:50:46.734Z,2.00
2022-09-12T07:52:54.706Z,1.80
2022-09-12T07:55:00.933Z,1.95
2022-09-12T07:57:05.193Z,2.08
2022-09-12T07:59:11.445Z,1.90
2022-09-12T08:01:19.739Z,1.88
2022-09-12T08:03:24.156Z,2.10
2022-09-12T08:05:31.130Z,1.90
2022-09-12T08:07:38.015Z,2.00
2022-09-12T08:09:42.260Z,2.00
2022-09-12T08:11:48.894Z,1.50
2022-09-12T08:13:56.073Z,2.10
2022-09-12T08:16:01.598Z,2.10
2022-09-12T08:18:06.425Z,2.47
2022-09-12T08:20:15.400Z,1.92
2022-09-12T08:22:23.067Z,1.95
2022-09-12T08:24:29.544Z,2.25
2022-09-12T08:26:36.401Z,2.00
2022-09-12T08:28:42.166Z,2.10
2022-09-12T08:30:48.315Z,1.75
2022-09-12T08:32:53.967Z,1.80
2022-09-12T08:34:58.252Z,2.20
2022-09-12T08:37:05.150Z,2.30
2022-09-12T08:39:12.127Z,2.25
2022-09-12T08:41:32.878Z,2.20
2022-09-12T08:43:56.846Z,2.17
2022-09-12T08:46:14.922Z,2.60
2022-09-12T08:48:19.568Z,2.17
2022-09-12T08:50:26.292Z,2.30
2022-09-12T08:52:57.349Z,2.20
2022-09-12T08:55:02.132Z,2.10
2022-09-12T08:57:10.399Z,2.40
2022-09-12T08:59:17.068Z,2.42
2022-09-12T09:01:45.116Z,2.40
2022-09-12T09:04:31.181Z,2.25
2022-09-12T09:07:15.530Z,2.47
2022-09-12T09:09:39.594Z,1.95
2022-09-12T09:12:15.682Z,3.17
2022-09-12T09:14:52.305Z,2.83
2022-09-12T09:16:56.900Z,3.90
2022-09-12T09:19:04.452Z,2.58
2022-09-12T09:21:50.060Z,2.60
2022-09-12T09:23:58.925Z,3.03
2022-09-12T09:26:28.326Z,5.05
2022-09-12T09:28:56.892Z,2.92
2022-09-12T09:31:01.263Z,2.85
2022-09-12T09:33:07.624Z,2.63
2022-09-12T09:35:36.374Z,2.60
2022-09-12T09:37:47.009Z,2.45
2022-09-12T09:40:14.243Z,3.00
2022-09-12T09:42:44.879Z,3.10
2022-09-12T09:44:50.066Z,2.50
2022-09-12T09:46:57.128Z,2.63
2022-09-12T09:49:06.395Z,2.20
2022-09-12T09:51:11.367Z,2.05
2022-09-12T09:53:47.352Z,2.50
2022-09-12T09:55:54.350Z,2.80
2022-09-12T09:58:01.476Z,2.40
2022-09-12T10:00:37.202Z,2.70
2022-09-12T10:02:41.956Z,2.45
2022-09-12T10:04:56.259Z,2.55
2022-09-12T10:07:02.266Z,2.70
2022-09-12T10:09:20.432Z,3.03
2022-09-12T10:11:27.998Z,2.47
2022-09-12T10:13:57.948Z,2.40
2022-09-12T10:16:04.687Z,2.40
2022-09-12T10:18:09.548Z,2.22
2022-09-12T10:20:38.629Z,2.40
2022-09-12T10:22:45.345Z,2.30
2022-09-12T10:24:58.447Z,2.40
2022-09-12T10:27:17.562Z,2.53
2022-09-12T10:29:29.390Z,2.10
2022-09-12T10:31:44.285Z,2.73
2022-09-12T10:33:53.799Z,2.75
2022-09-12T10:36:00.284Z,2.67
2022-09-12T10:38:26.532Z,3.25
2022-09-12T10:40:39.966Z,7.00
2022-09-12T10:43:06.006Z,5.45
2022-09-12T10:45:30.643Z,3.85
2022-09-12T10:47:35.008Z,3.53
2022-09-12T10:49:41.622Z,3.40
2022-09-12T10:51:48.199Z,3.90
2022-09-12T10:53:58.962Z,4.72
2022-09-12T10:56:09.868Z,4.85
2022-09-12T10:58:42.446Z,4.97
2022-09-12T11:00:49.117Z,4.30
2022-09-12T11:03:19.851Z,3.70
2022-09-12T11:05:38.514Z,4.45
2022-09-12T11:08:07.116Z,8.70
2022-09-12T11:10:27.256Z,6.68
2022-09-12T11:13:03.385Z,5.90
2022-09-12T11:15:28.985Z,4.93
2022-09-12T11:18:05.193Z,4.60
2022-09-12T11:20:37.538Z,4.68
2022-09-12T11:23:13.715Z,4.80
2022-09-12T11:25:51.867Z,5.05
2022-09-12T11:28:28.988Z,5.35
2022-09-12T11:30:41.301Z,5.07
2022-09-12T11:33:19.673Z,4.25
2022-09-12T11:35:31.278Z,5.32
2022-09-12T11:37:58.562Z,5.07
2022-09-12T11:40:27.974Z,4.53
2022-09-12T11:42:35.725Z,5.25
2022-09-12T11:44:42.003Z,3.88
2022-09-12T11:46:51.955Z,3.30
2022-09-12T11:49:21.455Z,3.85
2022-09-12T11:51:43.506Z,3.50
2022-09-12T11:53:58.137Z,3.70
2022-09-12T11:56:21.544Z,3.90
2022-09-12T11:58:27.939Z,4.35
2022-09-12T12:00:38.552Z,7.05
2022-09-12T12:03:31.761Z,6.95
2022-09-12T12:06:00.600Z,7.03
2022-09-12T12:08:06.953Z,6.50
2022-09-12T12:10:35.826Z,6.10
2022-09-12T12:12:44.616Z,4.88
2022-09-12T12:14:50.914Z,8.73
2022-09-12T12:16:55.235Z,9.48
2022-09-12T12:19:02.373Z,6.95
2022-09-12T12:21:31.270Z,5.65
2022-09-12T12:23:36.205Z,4.68
2022-09-12T12:25:46.459Z,4.65
2022-09-12T12:27:56.153Z,4.60
2022-09-12T12:30:00.440Z,4.60
2022-09-12T12:32:24.978Z,4.82
2022-09-12T12:34:45.319Z,5.43
2022-09-12T12:36:51.292Z,4.90
2022-09-12T12:38:57.583Z,4.53
2022-09-12T12:41:33.733Z,4.32
2022-09-12T12:43:38.613Z,5.10
2022-09-12T12:45:51.402Z,5.03
2022-09-12T12:48:16.898Z,5.32
2022-09-12T12:50:27.772Z,6.15
2022-09-12T12:52:59.828Z,6.13
2022-09-12T12:55:04.773Z,6.05
2022-09-12T12:57:31.308Z,5.78
2022-09-12T12:59:35.730Z,5.70
2022-09-12T13:01:42.137Z,5.13
2022-09-12T13:04:04.828Z,5.30
2022-09-12T13:06:11.920Z,4.85
2022-09-12T13:08:35.369Z,5.57
2022-09-12T13:12:48.256Z,5.30
2022-09-12T13:15:00.769Z,5.72
2022-09-12T13:17:08.815Z,6.00
2022-09-12T13:19:18.608Z,6.22
2022-09-12T13:21:24.512Z,5.10
2022-09-12T13:23:33.966Z,5.47
2022-09-12T13:25:41.090Z,5.43
2022-09-12T13:28:02.056Z,5.00
2022-09-12T13:30:14.502Z,4.85
2022-09-12T13:32:19.326Z,4.93
2022-09-12T13:34:35.352Z,5.35
2022-09-12T13:37:05.897Z,5.35
2022-09-12T13:39:21.517Z,5.28
2022-09-12T13:42:04.979Z,5.35
2022-09-12T13:46:23.038Z,6.03
2022-09-12T13:48:27.250Z,6.45
2022-09-12T13:50:35.012Z,5.95
2022-09-12T13:52:42.250Z,6.75
2022-09-12T13:54:47.860Z,5.60
2022-09-12T13:56:52.194Z,6.07
2022-09-12T13:59:06.378Z,5.40
2022-09-12T14:01:17.359Z,5.30
2022-09-12T14:03:43.680Z,4.82
2022-09-12T14:05:58.493Z,5.10
2022-09-12T14:08:06.113Z,6.70
2022-09-12T14:10:14.879Z,6.50
2022-09-12T14:12:41.782Z,6.82
2022-09-12T14:14:47.227Z,6.82
2022-09-12T14:16:54.767Z,7.60
2022-09-12T14:19:03.992Z,7.07
2022-09-12T14:21:22.599Z,7.78
2022-09-12T14:23:33.205Z,7.32
2022-09-12T14:25:42.441Z,7.63
2022-09-12T14:27:53.184Z,7.65
2022-09-12T14:30:07.843Z,7.10
2022-09-12T14:32:29.533Z,7.45
2022-09-12T14:34:35.272Z,7.03
2022-09-12T14:36:45.501Z,6.38
2022-09-12T14:38:53.786Z,5.95
2022-09-12T14:41:07.716Z,6.38
2022-09-12T14:43:31.394Z,5.85
2022-09-12T14:45:38.787Z,6.47
2022-09-12T14:47:43.771Z,6.05
2022-09-12T14:49:48.631Z,6.65
2022-09-12T14:52:04.054Z,6.85
2022-09-12T14:54:25.143Z,6.40
2022-09-12T14:56:42.360Z,6.95
2022-09-12T14:58:48.996Z,6.53
2022-09-12T15:01:16.843Z,6.22
2022-09-12T15:03:54.023Z,6.13
2022-09-12T15:06:01.654Z,6.50
2022-09-12T15:08:06.137Z,7.38
2022-09-12T15:10:34.160Z,7.70
2022-09-12T15:12:38.762Z,6.82
2022-09-12T15:14:43.105Z,6.10
2022-09-12T15:16:49.863Z,6.70
2022-09-12T15:18:56.227Z,5.75
2022-09-12T15:21:21.002Z,5.60
2022-09-12T15:23:43.445Z,5.70
2022-09-12T15:25:49.725Z,6.70
2022-09-12T15:27:54.836Z,6.13
2022-09-12T15:29:59.493Z,6.70
2022-09-12T15:32:07.195Z,5.57
2022-09-12T15:34:11.653Z,5.55
2022-09-12T15:36:19.887Z,6.28
2022-09-12T15:38:26.842Z,6.22
2022-09-12T15:40:31.785Z,7.78
2022-09-12T15:42:45.331Z,6.22
2022-09-12T15:44:51.977Z,6.18
2022-09-12T15:46:56.501Z,6.30
2022-09-12T15:49:01.926Z,6.28
2022-09-12T15:51:15.766Z,6.15
2022-09-12T15:53:20.193Z,6.00
2022-09-12T15:55:28.808Z,5.57
2022-09-12T15:57:35.806Z,6.18
2022-09-12T15:59:40.404Z,5.63
2022-09-12T16:01:45.911Z,6.10
2022-09-12T16:03:52.503Z,5.50
2022-09-12T16:06:03.857Z,6.10
2022-09-12T16:08:10.586Z,5.78
2022-09-12T16:10:19.512Z,5.82
2022-09-12T16:12:24.232Z,6.82
2022-09-12T16:14:29.292Z,6.28
2022-09-12T16:16:36.107Z,6.57
2022-09-12T16:18:43.343Z,6.65
2022-09-12T16:20:49.618Z,6.45
2022-09-12T16:22:56.333Z,6.57
2022-09-12T16:25:00.459Z,6.22
2022-09-12T16:27:07.384Z,6.45
2022-09-12T16:29:13.959Z,6.60
2022-09-12T16:31:18.313Z,7.30
2022-09-12T16:33:24.591Z,7.07
2022-09-12T16:35:32.487Z,6.45
2022-09-12T16:37:37.043Z,6.82
2022-09-12T16:39:42.915Z,6.25
2022-09-12T16:41:49.144Z,6.55
2022-09-12T16:43:53.916Z,7.85
2022-09-12T16:46:24.214Z,7.07
2022-09-12T16:48:30.768Z,6.85
2022-09-12T16:50:35.926Z,7.13
2022-09-12T16:52:42.496Z,6.72
2022-09-12T16:54:48.882Z,6.50
2022-09-12T16:56:53.185Z,6.25
2022-09-12T16:58:59.582Z,6.65
2022-09-12T17:01:06.914Z,6.47
2022-09-12T17:03:12.278Z,6.43
2022-09-12T17:05:19.166Z,6.65
2022-09-12T17:07:25.872Z,7.07
2022-09-12T17:09:30.749Z,7.10
2022-09-12T17:11:42.004Z,7.35
2022-09-12T17:14:09.981Z,8.13
2022-09-12T17:16:15.062Z,7.90
2022-09-12T17:18:21.978Z,7.30
2022-09-12T17:20:28.552Z,7.32
2022-09-12T17:22:33.635Z,7.30
2022-09-12T17:24:42.057Z,7.47
2022-09-12T17:26:48.628Z,7.47
2022-09-12T17:28:52.982Z,7.85
2022-09-12T17:31:01.716Z,7.75
2022-09-12T17:33:08.025Z,7.25
2022-09-12T17:35:12.916Z,7.70
2022-09-12T17:37:19.273Z,7.38
2022-09-12T17:39:25.858Z,7.10
2022-09-12T17:41:32.731Z,8.02
2022-09-12T17:43:41.119Z,8.15
2022-09-12T17:45:47.438Z,8.95
2022-09-12T17:47:51.704Z,8.82
2022-09-12T17:50:09.235Z,7.97
2022-09-12T17:52:22.736Z,8.18
2022-09-12T17:54:28.750Z,7.55
2022-09-12T17:56:36.463Z,7.65
2022-09-12T17:58:43.296Z,8.25
2022-09-12T18:01:00.133Z,7.70
2022-09-12T18:03:04.789Z,8.10
2022-09-12T18:05:12.973Z,7.88
2022-09-12T18:07:19.301Z,8.23
2022-09-12T18:09:28.161Z,7.50
2022-09-12T18:11:35.093Z,7.82
2022-09-12T18:13:39.457Z,7.57
2022-09-12T18:15:45.854Z,8.00
2022-09-12T18:17:53.850Z,7.80
2022-09-12T18:19:58.726Z,7.82
2022-09-12T18:22:05.580Z,7.55
2022-09-12T18:24:12.257Z,7.20
2022-09-12T18:26:16.541Z,8.32
2022-09-12T18:28:22.983Z,9.30
2022-09-12T18:30:31.158Z,10.23
2022-09-12T18:32:36.535Z,9.27
2022-09-12T18:34:43.025Z,9.70
2022-09-12T18:36:50.649Z,8.13
2022-09-12T18:38:55.228Z,8.10
2022-09-12T18:41:23.386Z,7.78
2022-09-12T18:43:30.477Z,8.98
2022-09-12T18:45:35.996Z,8.90
2022-09-12T18:47:43.847Z,9.07
2022-09-12T18:49:50.412Z,9.38
2022-09-12T18:51:54.670Z,11.10
2022-09-12T18:54:06.117Z,11.27
2022-09-12T18:56:14.258Z,22.08
2022-09-12T18:58:18.592Z,22.48
2022-09-12T19:00:25.070Z,20.27
2022-09-12T19:02:31.327Z,18.45
2022-09-12T19:04:35.680Z,16.77
2022-09-12T19:06:47.167Z,14.82
2022-09-12T19:08:53.865Z,14.02
2022-09-12T19:10:58.466Z,14.30
2022-09-12T19:13:06.377Z,12.40
2022-09-12T19:15:12.600Z,12.63
2022-09-12T19:17:18.986Z,12.38
2022-09-12T19:19:25.385Z,11.77
2022-09-12T19:21:32.326Z,10.68
2022-09-12T19:23:36.834Z,10.73
2022-09-12T19:25:43.960Z,9.15
2022-09-12T19:27:52.127Z,10.35
2022-09-12T19:29:56.862Z,10.10
2022-09-12T19:32:03.285Z,9.90
2022-09-12T19:34:10.242Z,9.55
2022-09-12T19:36:34.059Z,8.77
2022-09-12T19:38:40.813Z,9.38
2022-09-12T19:40:56.483Z,9.98
2022-09-12T19:43:01.068Z,9.68
2022-09-12T19:45:07.404Z,9.57
2022-09-12T19:47:13.859Z,9.10
2022-09-12T19:49:18.304Z,9.07
2022-09-12T19:51:25.539Z,7.93
2022-09-12T19:53:31.865Z,8.43
2022-09-12T19:55:37.128Z,8.02
2022-09-12T19:57:43.600Z,8.40
2022-09-12T19:59:51.036Z,8.52
2022-09-12T20:01:55.491Z,9.63
2022-09-12T20:04:00.480Z,9.23
2022-09-12T20:06:13.319Z,8.38
2022-09-12T20:10:24.151Z,8.88
2022-09-12T20:12:30.611Z,8.30
2022-09-12T20:14:34.791Z,8.07
2022-09-12T20:16:41.510Z,7.90
2022-09-12T20:18:48.339Z,8.52
2022-09-12T20:20:53.081Z,8.90
2022-09-12T20:22:58.862Z,8.30
2022-09-12T20:25:03.837Z,8.55
2022-09-12T20:27:08.223Z,8.70
2022-09-12T20:29:17.258Z,9.20
2022-09-12T20:31:24.325Z,8.38
2022-09-12T20:33:29.127Z,8.35
2022-09-12T20:35:37.164Z,8.73
2022-09-12T20:37:44.551Z,9.32
2022-09-12T20:39:50.871Z,8.27
2022-09-12T20:41:58.189Z,8.27
2022-09-12T20:44:05.098Z,8.07
2022-09-12T20:46:13.211Z,8.27
2022-09-12T20:48:20.046Z,8.27
2022-09-12T20:50:27.089Z,8.30
2022-09-12T20:52:31.942Z,8.45
2022-09-12T20:54:38.557Z,7.68
2022-09-12T20:56:45.296Z,7.78
2022-09-12T20:58:49.565Z,7.68
2022-09-12T21:00:54.008Z,8.55
2022-09-12T21:03:00.290Z,8.52
2022-09-12T21:05:04.709Z,7.57
2022-09-12T21:07:11.600Z,8.05
2022-09-12T21:09:17.879Z,8.07
2022-09-12T21:11:22.600Z,8.05
2022-09-12T21:13:29.327Z,8.27
2022-09-12T21:15:33.586Z,8.77
2022-09-12T21:17:37.758Z,8.05
2022-09-12T21:19:43.918Z,8.23
2022-09-12T21:21:50.440Z,8.07
2022-09-12T21:23:56.387Z,10.88
2022-09-12T21:26:03.395Z,10.55
2022-09-12T21:28:11.601Z,12.80
2022-09-12T21:30:17.756Z,12.75
2022-09-12T21:32:24.245Z,11.93
2022-09-12T21:34:30.524Z,10.63
2022-09-12T21:36:34.835Z,11.18
2022-09-12T21:38:41.105Z,10.93
2022-09-12T21:40:47.798Z,12.20
2022-09-12T21:42:52.389Z,12.07
2022-09-12T21:44:59.335Z,12.45
2022-09-12T21:47:03.671Z,10.45
2022-09-12T21:49:08.332Z,10.43
2022-09-12T21:51:14.675Z,12.80
2022-09-12T21:53:19.859Z,14.25
2022-09-12T21:55:28.031Z,14.93
2022-09-12T21:57:37.544Z,12.73
2022-09-12T21:59:43.835Z,11.45
2022-09-12T22:01:48.244Z,12.73
2022-09-12T22:03:53.355Z,12.98
2022-09-12T22:06:02.579Z,14.45
2022-09-12T22:08:08.937Z,13.73
2022-09-12T22:10:15.306Z,12.35
2022-09-12T22:12:21.526Z,12.32
2022-09-12T22:14:26.243Z,10.65
2022-09-12T22:16:31.211Z,11.40
2022-09-12T22:18:37.736Z,10.77
2022-09-12T22:20:42.100Z,10.82
2022-09-12T22:23:01.201Z,11.65
2022-09-12T22:25:08.828Z,11.45
2022-09-12T22:27:13.345Z,12.18
2022-09-12T22:29:18.805Z,13.23
2022-09-12T22:31:28.022Z,12.02
2022-09-12T22:33:32.396Z,15.70
2022-09-12T22:35:39.444Z,13.75
2022-09-12T22:37:43.744Z,13.40
2022-09-12T22:39:48.991Z,12.32
2022-09-12T22:41:53.528Z,12.98
2022-09-12T22:43:58.912Z,16.95
2022-09-12T22:46:03.243Z,20.13
2022-09-12T22:48:09.997Z,19.08
2022-09-12T22:50:16.255Z,17.63
2022-09-12T22:52:21.234Z,16.63
2022-09-12T22:54:27.624Z,16.48
2022-09-12T22:56:34.318Z,15.85
2022-09-12T22:58:38.744Z,16.05
2022-09-12T23:00:51.404Z,16.15
2022-09-12T23:02:58.031Z,17.40
2022-09-12T23:05:02.940Z,16.50
2022-09-12T23:07:26.836Z,15.05
2022-09-12T23:09:35.425Z,16.55
2022-09-12T23:11:40.445Z,17.08
2022-09-12T23:13:45.908Z,17.30
2022-09-12T23:15:58.033Z,16.73
2022-09-12T23:18:04.888Z,15.68
2022-09-12T23:20:12.137Z,15.48
2022-09-12T23:22:18.462Z,16.05
2022-09-12T23:24:22.811Z,15.63
2022-09-12T23:26:30.950Z,15.40
2022-09-12T23:28:36.218Z,17.05
2022-09-12T23:30:40.889Z,17.15
2022-09-12T23:32:45.874Z,15.95
2022-09-12T23:34:52.284Z,16.63
2022-09-12T23:36:57.387Z,15.50
2022-09-12T23:39:01.706Z,16.17
2022-09-12T23:41:08.654Z,14.07
2022-09-12T23:43:12.982Z,21.65
2022-09-12T23:45:19.411Z,15.73
2022-09-12T23:47:25.787Z,14.77
2022-09-12T23:49:30.166Z,13.85
2022-09-12T23:51:36.481Z,11.98
2022-09-12T23:53:43.098Z,13.50
2022-09-12T23:55:47.355Z,12.10
2022-09-12T23:57:51.748Z,12.45
2022-09-12T23:59:56.110Z,12.43
